createdAt,value
2018-11-22T00:01:55.125Z,44.67
2018-11-22T00:04:23.156Z,48.07
2018-11-22T00:06:51.229Z,44.97
2018-11-22T00:09:19.263Z,41.73
2018-11-22T00:11:47.331Z,46.57
2018-11-22T00:14:15.409Z,44.03
2018-11-22T00:16:43.460Z,44.80
2018-11-22T00:19:11.540Z,45.77
2018-11-22T00:21:39.568Z,45.57
2018-11-22T00:24:07.637Z,49.30
2018-11-22T00:26:35.682Z,45.03
2018-11-22T00:29:03.780Z,45.77
2018-11-22T00:31:31.866Z,42.60
2018-11-22T00:33:59.913Z,47.00
2018-11-22T00:36:27.995Z,45.53
2018-11-22T00:38:56.023Z,45.13
2018-11-22T00:41:24.083Z,41.80
2018-11-22T00:43:52.119Z,45.00
2018-11-22T00:46:20.209Z,43.70
2018-11-22T00:48:48.240Z,44.70
2018-11-22T00:51:16.307Z,42.37
2018-11-22T00:53:44.341Z,44.37
2018-11-22T00:56:12.475Z,46.00
2018-11-22T00:58:40.507Z,44.30
2018-11-22T01:01:08.570Z,47.80
2018-11-22T01:03:36.612Z,42.67
2018-11-22T01:06:04.858Z,41.83
2018-11-22T01:08:32.886Z,40.10
2018-11-22T01:11:00.950Z,41.80
2018-11-22T01:13:28.984Z,43.23
2018-11-22T01:15:57.071Z,43.20
2018-11-22T01:18:25.124Z,41.07
2018-11-22T01:20:53.202Z,46.27
2018-11-22T01:23:21.290Z,43.67
2018-11-22T01:25:49.326Z,44.53
2018-11-22T01:28:17.414Z,42.07
2018-11-22T01:30:45.470Z,41.53
2018-11-22T01:33:13.555Z,42.97
2018-11-22T01:35:41.639Z,42.10
2018-11-22T01:38:09.663Z,44.17
2018-11-22T01:40:37.792Z,42.60
2018-11-22T01:43:05.939Z,47.27
2018-11-22T01:45:34.019Z,49.90
2018-11-22T01:48:02.046Z,48.13
2018-11-22T01:50:30.079Z,46.17
2018-11-22T01:52:58.167Z,51.40
2018-11-22T01:55:26.262Z,51.97
2018-11-22T01:57:54.327Z,52.37
2018-11-22T02:00:24.514Z,49.53
2018-11-22T02:02:52.592Z,50.20
2018-11-22T02:05:22.002Z,51.60
2018-11-22T02:07:50.193Z,52.57
2018-11-22T02:10:19.381Z,52.50
2018-11-22T02:12:47.452Z,49.27
2018-11-22T02:15:17.003Z,52.50
2018-11-22T02:17:45.131Z,57.27
2018-11-22T02:20:15.172Z,50.67
2018-11-22T02:22:43.497Z,55.87
2018-11-22T02:25:12.548Z,51.60
2018-11-22T02:27:40.613Z,51.90
2018-11-22T02:30:10.986Z,58.23
2018-11-22T02:32:39.073Z,53.77
2018-11-22T02:35:08.380Z,50.57
2018-11-22T02:37:36.418Z,52.17
2018-11-22T02:40:04.972Z,51.40
2018-11-22T02:42:33.000Z,53.53
2018-11-22T02:45:01.124Z,50.67
2018-11-22T02:47:29.188Z,56.30
2018-11-22T02:49:57.269Z,51.10
2018-11-22T02:52:25.329Z,52.90
2018-11-22T02:54:53.415Z,53.37
2018-11-22T02:57:21.527Z,54.10
2018-11-22T02:59:49.575Z,50.53
2018-11-22T03:02:17.607Z,54.53
2018-11-22T03:04:45.676Z,50.50
2018-11-22T03:07:13.721Z,52.23
2018-11-22T03:09:41.811Z,52.23
2018-11-22T03:12:09.881Z,55.33
2018-11-22T03:14:37.909Z,53.43
2018-11-22T03:17:06.024Z,52.87
2018-11-22T03:19:34.167Z,55.83
2018-11-22T03:22:02.201Z,52.93
2018-11-22T03:24:30.263Z,55.77
2018-11-22T03:26:58.291Z,55.53
2018-11-22T03:29:26.392Z,54.17
2018-11-22T03:31:54.418Z,58.43
2018-11-22T03:34:22.474Z,51.93
2018-11-22T03:36:50.541Z,53.07
2018-11-22T03:39:18.653Z,52.00
2018-11-22T03:41:46.735Z,58.97
2018-11-22T03:44:14.811Z,52.80
2018-11-22T03:46:42.882Z,56.70
2018-11-22T03:49:10.926Z,56.13
2018-11-22T03:51:39.005Z,55.07
2018-11-22T03:54:07.076Z,55.53
2018-11-22T03:56:35.114Z,56.50
2018-11-22T03:59:03.202Z,50.80
2018-11-22T04:01:31.288Z,60.17
2018-11-22T04:03:59.356Z,55.00
2018-11-22T04:06:27.432Z,62.73
2018-11-22T04:08:55.477Z,57.73
2018-11-22T04:11:23.552Z,51.17
2018-11-22T04:13:51.599Z,58.03
2018-11-22T04:16:19.665Z,59.53
2018-11-22T04:18:47.677Z,57.40
2018-11-22T04:21:15.748Z,54.87
2018-11-22T04:23:43.783Z,57.63
2018-11-22T04:26:11.872Z,58.33
2018-11-22T04:28:39.915Z,58.20
2018-11-22T04:31:07.941Z,56.20
2018-11-22T04:33:35.995Z,54.10
2018-11-22T04:36:04.106Z,55.93
2018-11-22T04:38:32.175Z,56.17
2018-11-22T04:41:00.181Z,57.27
2018-11-22T04:43:28.219Z,62.30
2018-11-22T04:45:56.280Z,58.43
2018-11-22T04:48:24.316Z,60.40
2018-11-22T04:50:52.394Z,55.93
2018-11-22T04:53:20.440Z,57.90
2018-11-22T04:55:48.540Z,58.63
2018-11-22T04:58:16.674Z,58.47
2018-11-22T05:00:44.705Z,59.43
2018-11-22T05:03:12.903Z,57.57
2018-11-22T05:05:41.028Z,58.90
2018-11-22T05:08:09.118Z,60.47
2018-11-22T05:10:37.152Z,60.87
2018-11-22T05:13:05.298Z,63.10
2018-11-22T05:15:33.350Z,59.93
2018-11-22T05:18:01.390Z,61.63
2018-11-22T05:20:29.463Z,55.80
2018-11-22T05:22:57.509Z,61.13
2018-11-22T05:25:25.578Z,55.67
2018-11-22T05:27:53.602Z,56.00
2018-11-22T05:30:23.258Z,54.57
2018-11-22T05:32:51.307Z,64.57
2018-11-22T05:35:19.816Z,57.23
2018-11-22T05:37:47.893Z,62.53
2018-11-22T05:40:35.054Z,62.60
2018-11-22T05:43:03.191Z,60.07
2018-11-22T05:45:31.545Z,58.43
2018-11-22T05:47:59.615Z,54.73
2018-11-22T05:50:28.915Z,58.70
2018-11-22T05:52:58.566Z,58.00
2018-11-22T05:55:26.639Z,61.67
2018-11-22T05:57:54.929Z,58.63
2018-11-22T06:00:24.547Z,63.47
2018-11-22T06:02:52.899Z,61.37
2018-11-22T06:05:22.433Z,61.27
2018-11-22T06:07:50.693Z,59.90
2018-11-22T06:10:22.983Z,58.37
2018-11-22T06:12:51.752Z,57.30
2018-11-22T06:15:20.051Z,62.90
2018-11-22T06:17:48.821Z,56.30
2018-11-22T06:20:18.456Z,62.27
2018-11-22T06:22:46.596Z,59.00
2018-11-22T06:25:15.852Z,55.60
2018-11-22T06:27:44.121Z,55.60
2018-11-22T06:30:32.457Z,60.30
2018-11-22T06:33:01.668Z,63.53
2018-11-22T06:35:30.424Z,63.17
2018-11-22T06:37:58.750Z,60.07
2018-11-22T06:40:26.820Z,65.20
2018-11-22T06:42:55.778Z,66.17
2018-11-22T06:45:25.334Z,62.10
2018-11-22T06:47:53.361Z,64.03
2018-11-22T06:50:22.295Z,63.80
2018-11-22T06:52:50.340Z,61.33
2018-11-22T06:55:19.984Z,68.43
2018-11-22T06:57:48.041Z,63.50
2018-11-22T07:00:17.780Z,60.73
2018-11-22T07:02:46.228Z,65.30
2018-11-22T07:05:15.040Z,67.73
2018-11-22T07:07:43.130Z,63.80
2018-11-22T07:10:12.501Z,60.80
2018-11-22T07:12:40.628Z,67.13
2018-11-22T07:15:09.378Z,70.30
2018-11-22T07:17:37.688Z,70.53
2018-11-22T07:20:08.445Z,59.20
2018-11-22T07:22:36.503Z,61.13
2018-11-22T07:25:05.972Z,61.47
2018-11-22T07:27:38.261Z,63.23
2018-11-22T07:30:02.078Z,71.87
2018-11-22T07:32:30.162Z,58.10
2018-11-22T07:34:58.203Z,61.93
2018-11-22T07:37:26.286Z,63.93
2018-11-22T07:39:54.367Z,61.67
2018-11-22T07:42:22.432Z,63.20
2018-11-22T07:45:11.439Z,65.77
2018-11-22T07:47:39.789Z,68.63
2018-11-22T07:50:09.731Z,60.80
2018-11-22T07:52:37.797Z,59.20
2018-11-22T07:55:08.039Z,67.10
2018-11-22T07:57:36.045Z,70.30
2018-11-22T08:00:04.925Z,76.40
2018-11-22T08:02:32.972Z,65.13
2018-11-22T08:05:01.016Z,67.77
2018-11-22T08:07:29.104Z,65.77
2018-11-22T08:09:57.170Z,71.33
2018-11-22T08:12:25.998Z,65.33
2018-11-22T08:14:53.323Z,63.53
2018-11-22T08:17:21.386Z,62.87
2018-11-22T08:19:49.452Z,64.43
2018-11-22T08:22:17.476Z,64.63
2018-11-22T08:24:45.568Z,63.43
2018-11-22T08:27:13.601Z,72.07
2018-11-22T08:29:41.672Z,70.40
2018-11-22T08:32:09.728Z,61.97
2018-11-22T08:34:37.802Z,71.37
2018-11-22T08:37:05.963Z,72.37
2018-11-22T08:39:34.062Z,68.70
2018-11-22T08:42:02.127Z,68.73
2018-11-22T08:44:30.199Z,63.67
2018-11-22T08:46:58.324Z,75.83
2018-11-22T08:49:26.363Z,78.00
2018-11-22T08:51:54.436Z,70.90
2018-11-22T08:54:22.519Z,73.97
2018-11-22T08:56:50.597Z,68.77
2018-11-22T08:59:18.681Z,71.77
2018-11-22T09:01:47.565Z,72.23
2018-11-22T09:04:15.670Z,76.60
2018-11-22T09:06:43.709Z,69.00
2018-11-22T09:09:12.381Z,64.33
2018-11-22T09:11:41.010Z,64.07
2018-11-22T09:14:09.041Z,73.70
2018-11-22T09:16:37.130Z,77.27
2018-11-22T09:19:05.195Z,72.30
2018-11-22T09:21:33.296Z,75.53
2018-11-22T09:24:01.318Z,71.60
2018-11-22T09:26:29.433Z,77.73
2018-11-22T09:28:57.478Z,74.07
2018-11-22T09:31:25.572Z,68.70
2018-11-22T09:33:53.553Z,65.20
2018-11-22T09:36:21.652Z,71.17
2018-11-22T09:38:49.716Z,63.67
2018-11-22T09:41:17.762Z,72.10
2018-11-22T09:43:45.842Z,64.70
2018-11-22T09:46:13.921Z,64.23
2018-11-22T09:48:42.096Z,68.60
2018-11-22T09:51:10.110Z,75.33
2018-11-22T09:53:38.151Z,72.30
2018-11-22T09:56:06.540Z,61.50
2018-11-22T09:58:34.595Z,78.33
2018-11-22T10:01:02.667Z,82.50
2018-11-22T10:03:30.763Z,82.43
2018-11-22T10:05:58.856Z,73.57
2018-11-22T10:08:46.011Z,74.80
2018-11-22T10:11:14.093Z,72.30
2018-11-22T10:13:42.199Z,82.73
2018-11-22T10:16:10.257Z,72.70
2018-11-22T10:18:39.026Z,76.07
2018-11-22T10:21:07.089Z,72.53
2018-11-22T10:23:35.193Z,84.93
2018-11-22T10:26:03.235Z,78.30
2018-11-22T10:28:31.306Z,79.00
2018-11-22T10:30:59.356Z,81.53
2018-11-22T10:33:27.447Z,81.90
2018-11-22T10:35:55.539Z,78.77
2018-11-22T10:38:23.746Z,77.13
2018-11-22T10:40:51.764Z,82.03
2018-11-22T10:43:19.794Z,81.57
2018-11-22T10:45:47.872Z,77.70
2018-11-22T10:48:15.898Z,82.67
2018-11-22T10:50:43.973Z,77.57
2018-11-22T10:53:12.025Z,80.70
2018-11-22T10:55:41.655Z,91.23
2018-11-22T10:58:09.700Z,87.83
2018-11-22T11:00:56.929Z,82.60
2018-11-22T11:03:44.144Z,77.07
2018-11-22T11:06:31.436Z,76.97
2018-11-22T11:08:59.744Z,90.37
2018-11-22T11:11:27.989Z,75.73
2018-11-22T11:13:56.226Z,80.70
2018-11-22T11:16:24.366Z,84.03
2018-11-22T11:18:52.620Z,82.17
2018-11-22T11:21:20.696Z,77.70
2018-11-22T11:23:48.764Z,85.30
2018-11-22T11:26:16.863Z,77.70
2018-11-22T11:28:44.913Z,80.77
2018-11-22T11:31:13.016Z,81.27
2018-11-22T11:33:41.057Z,84.50
2018-11-22T11:36:09.247Z,86.77
2018-11-22T11:38:37.412Z,78.03
2018-11-22T11:41:05.759Z,76.03
2018-11-22T11:43:33.876Z,84.97
2018-11-22T11:46:01.947Z,81.93
2018-11-22T11:48:30.006Z,92.07
2018-11-22T11:50:58.064Z,79.57
2018-11-22T11:53:41.000Z,78.70
2018-11-22T11:55:54.364Z,73.37
2018-11-22T11:58:22.407Z,83.63
2018-11-22T12:00:50.558Z,70.43
2018-11-22T12:03:18.639Z,78.40
2018-11-22T12:05:46.837Z,80.50
2018-11-22T12:08:14.954Z,79.17
2018-11-22T12:10:43.066Z,84.27
2018-11-22T12:13:11.114Z,81.93
2018-11-22T12:15:39.197Z,71.57
2018-11-22T12:18:07.489Z,88.07
2018-11-22T12:20:35.528Z,83.87
2018-11-22T12:23:03.636Z,75.47
2018-11-22T12:25:31.691Z,80.07
2018-11-22T12:28:00.996Z,76.90
2018-11-22T12:30:30.492Z,80.80
2018-11-22T12:32:59.389Z,75.43
2018-11-22T12:35:46.571Z,78.60
2018-11-22T12:38:33.883Z,76.23
2018-11-22T12:41:01.916Z,75.00
2018-11-22T12:43:30.025Z,77.60
2018-11-22T12:45:58.069Z,84.23
2018-11-22T12:48:26.150Z,87.40
2018-11-22T12:50:54.243Z,80.40
2018-11-22T12:53:22.289Z,70.53
2018-11-22T12:55:50.363Z,78.23
2018-11-22T12:58:18.458Z,78.10
2018-11-22T13:00:46.551Z,77.53
2018-11-22T13:03:14.610Z,77.20
2018-11-22T13:05:42.673Z,75.63
2018-11-22T13:08:10.729Z,77.50
2018-11-22T13:10:38.842Z,71.07
2018-11-22T13:13:07.056Z,77.13
2018-11-22T13:15:35.128Z,72.20
2018-11-22T13:18:03.224Z,74.43
2018-11-22T13:20:31.268Z,68.33
2018-11-22T13:22:59.382Z,75.37
2018-11-22T13:25:27.466Z,68.00
2018-11-22T13:27:55.616Z,75.10
2018-11-22T13:30:25.037Z,66.40
2018-11-22T13:32:53.769Z,66.43
2018-11-22T13:35:22.001Z,74.67
2018-11-22T13:37:51.413Z,71.30
2018-11-22T13:40:19.639Z,71.50
2018-11-22T13:42:48.692Z,70.73
2018-11-22T13:45:19.449Z,75.83
2018-11-22T13:47:48.219Z,72.80
2018-11-22T13:50:18.726Z,76.87
2018-11-22T13:52:48.173Z,67.10
2018-11-22T13:55:16.223Z,70.83
2018-11-22T13:57:44.332Z,80.83
2018-11-22T14:00:32.706Z,76.17
2018-11-22T14:03:19.891Z,75.37
2018-11-22T14:06:00.291Z,72.57
2018-11-22T14:08:28.383Z,72.67
2018-11-22T14:11:04.065Z,73.63
2018-11-22T14:13:32.164Z,71.33
2018-11-22T14:16:00.216Z,71.20
2018-11-22T14:18:28.292Z,73.53
2018-11-22T14:20:56.344Z,72.77
2018-11-22T14:23:24.426Z,71.03
2018-11-22T14:25:52.499Z,67.73
2018-11-22T14:28:20.594Z,75.73
2018-11-22T14:30:48.667Z,71.20
2018-11-22T14:33:16.759Z,77.67
2018-11-22T14:35:44.798Z,72.93
2018-11-22T14:38:12.857Z,70.07
2018-11-22T14:40:40.922Z,69.10
2018-11-22T14:43:08.978Z,76.23
2018-11-22T14:45:37.034Z,70.27
2018-11-22T14:48:05.402Z,68.33
2018-11-22T14:51:03.903Z,67.83
2018-11-22T14:53:32.041Z,66.13
2018-11-22T14:56:00.083Z,72.60
2018-11-22T14:58:28.189Z,79.13
2018-11-22T15:00:56.285Z,78.60
2018-11-22T15:03:24.338Z,76.07
2018-11-22T15:05:52.416Z,66.57
2018-11-22T15:08:20.461Z,74.47
2018-11-22T15:10:48.539Z,78.07
2018-11-22T15:13:16.585Z,78.80
2018-11-22T15:15:44.667Z,71.40
2018-11-22T15:18:12.708Z,71.73
2018-11-22T15:20:40.806Z,78.77
2018-11-22T15:23:08.912Z,77.70
2018-11-22T15:25:36.977Z,74.53
2018-11-22T15:28:05.070Z,74.70
2018-11-22T15:30:33.185Z,70.73
2018-11-22T15:33:01.320Z,79.00
2018-11-22T15:35:30.333Z,76.93
2018-11-22T15:37:58.401Z,71.70
2018-11-22T15:40:26.882Z,64.63
2018-11-22T15:42:56.373Z,78.07
2018-11-22T15:45:25.734Z,78.53
2018-11-22T15:47:53.758Z,76.13
2018-11-22T15:50:23.176Z,75.93
2018-11-22T15:52:51.235Z,79.60
2018-11-22T15:55:21.018Z,73.30
2018-11-22T15:57:48.958Z,76.67
2018-11-22T16:00:36.321Z,69.20
2018-11-22T16:03:04.541Z,80.57
2018-11-22T16:05:33.099Z,79.67
2018-11-22T16:08:01.530Z,71.43
2018-11-22T16:10:31.232Z,77.03
2018-11-22T16:13:00.940Z,74.10
2018-11-22T16:15:34.220Z,72.40
2018-11-22T16:18:02.314Z,67.43
2018-11-22T16:20:30.374Z,81.93
2018-11-22T16:22:58.454Z,72.40
2018-11-22T16:25:26.532Z,73.40
2018-11-22T16:27:54.639Z,76.23
2018-11-22T16:30:24.118Z,77.00
2018-11-22T16:32:52.519Z,70.43
2018-11-22T16:35:21.388Z,81.73
2018-11-22T16:37:49.496Z,79.00
2018-11-22T16:40:36.690Z,70.47
2018-11-22T16:43:04.968Z,74.03
2018-11-22T16:45:34.468Z,76.93
2018-11-22T16:48:04.125Z,72.20
2018-11-22T16:50:33.168Z,71.87
2018-11-22T16:53:01.272Z,77.63
2018-11-22T16:55:29.354Z,73.43
2018-11-22T16:57:58.786Z,75.60
2018-11-22T17:00:28.148Z,72.20
2018-11-22T17:02:57.792Z,76.83
2018-11-22T17:05:26.081Z,77.10
2018-11-22T17:07:54.180Z,75.33
2018-11-22T17:10:23.778Z,74.23
2018-11-22T17:12:53.253Z,73.40
2018-11-22T17:15:22.692Z,74.40
2018-11-22T17:17:51.240Z,76.60
2018-11-22T17:20:20.163Z,71.57
2018-11-22T17:22:48.912Z,76.73
2018-11-22T17:25:18.350Z,73.17
2018-11-22T17:27:47.463Z,69.73
2018-11-22T17:30:34.763Z,73.87
2018-11-22T17:33:02.850Z,76.80
2018-11-22T17:35:31.447Z,76.57
2018-11-22T17:38:00.614Z,77.73
2018-11-22T17:40:47.870Z,80.67
2018-11-22T17:43:16.022Z,74.77
2018-11-22T17:45:45.511Z,69.30
2018-11-22T17:48:13.622Z,71.53
2018-11-22T17:50:43.141Z,79.37
2018-11-22T17:53:30.762Z,75.23
2018-11-22T17:55:58.908Z,78.17
2018-11-22T17:58:27.573Z,75.83
2018-11-22T18:00:55.763Z,76.30
2018-11-22T18:03:23.845Z,76.20
2018-11-22T18:05:52.447Z,71.67
2018-11-22T18:08:20.615Z,72.80
2018-11-22T18:10:48.714Z,78.67
2018-11-22T18:13:16.805Z,73.03
2018-11-22T18:16:04.068Z,80.87
2018-11-22T18:18:32.164Z,67.10
2018-11-22T18:21:00.221Z,76.17
2018-11-22T18:23:28.453Z,71.20
2018-11-22T18:25:56.528Z,75.50
2018-11-22T18:28:24.595Z,72.93
2018-11-22T18:30:52.817Z,72.93
2018-11-22T18:33:20.910Z,69.93
2018-11-22T18:35:49.052Z,73.77
2018-11-22T18:38:17.123Z,81.07
2018-11-22T18:40:45.352Z,73.07
2018-11-22T18:43:13.466Z,74.57
2018-11-22T18:45:42.940Z,94.30
2018-11-22T18:48:12.598Z,91.00
2018-11-22T18:50:41.113Z,75.70
2018-11-22T18:53:09.456Z,79.90
2018-11-22T18:55:37.553Z,72.87
2018-11-22T18:58:06.250Z,79.10
2018-11-22T19:00:35.758Z,71.63
2018-11-22T19:03:05.913Z,80.80
2018-11-22T19:05:34.011Z,75.00
2018-11-22T19:08:02.124Z,74.73
2018-11-22T19:10:31.594Z,73.83
2018-11-22T19:13:01.039Z,80.37
2018-11-22T19:15:30.332Z,71.27
2018-11-22T19:17:58.649Z,74.57
2018-11-22T19:20:29.155Z,82.20
2018-11-22T19:22:57.946Z,71.30
2018-11-22T19:25:26.077Z,76.13
2018-11-22T19:28:13.379Z,76.93
2018-11-22T19:30:42.956Z,86.60
2018-11-22T19:33:12.708Z,78.73
2018-11-22T19:35:42.577Z,75.43
2018-11-22T19:38:10.797Z,77.90
2018-11-22T19:40:39.517Z,77.63
2018-11-22T19:43:08.547Z,77.63
2018-11-22T19:45:38.109Z,77.63
2018-11-22T19:48:06.754Z,79.03
2018-11-22T19:50:35.147Z,75.23
2018-11-22T19:53:04.445Z,71.70
2018-11-22T19:55:33.553Z,80.90
2018-11-22T19:58:20.805Z,71.57
2018-11-22T20:00:49.098Z,71.27
2018-11-22T20:03:17.140Z,75.10
2018-11-22T20:05:45.310Z,72.30
2018-11-22T20:08:15.194Z,72.93
2018-11-22T20:10:44.330Z,75.53
2018-11-22T20:13:12.453Z,74.33
2018-11-22T20:15:40.562Z,73.63
2018-11-22T20:18:10.124Z,64.20
2018-11-22T20:20:38.224Z,82.20
2018-11-22T20:23:06.419Z,69.50
2018-11-22T20:25:35.148Z,69.90
2018-11-22T20:28:03.169Z,73.67
2018-11-22T20:30:50.444Z,79.43
2018-11-22T20:33:18.594Z,70.87
2018-11-22T20:35:46.898Z,70.43
2018-11-22T20:38:15.160Z,70.03
2018-11-22T20:40:43.407Z,65.40
2018-11-22T20:43:11.510Z,72.73
2018-11-22T20:45:41.093Z,75.40
2018-11-22T20:48:08.099Z,71.07
2018-11-22T20:50:36.731Z,73.30
2018-11-22T20:53:05.147Z,70.13
2018-11-22T20:55:34.783Z,72.63
2018-11-22T20:58:04.371Z,71.50
2018-11-22T21:00:33.960Z,70.07
2018-11-22T21:03:02.036Z,76.17
2018-11-22T21:05:30.687Z,76.43
2018-11-22T21:07:58.777Z,82.00
2018-11-22T21:10:28.142Z,77.37
2018-11-22T21:12:56.424Z,76.03
2018-11-22T21:15:25.817Z,69.37
2018-11-22T21:17:55.731Z,86.40
2018-11-22T21:20:42.987Z,77.40
2018-11-22T21:23:11.131Z,160.03
2018-11-22T21:25:39.200Z,96.33
2018-11-22T21:28:07.354Z,102.83
2018-11-22T21:30:36.888Z,94.50
2018-11-22T21:33:04.996Z,87.67
2018-11-22T21:35:33.463Z,82.20
2018-11-22T21:38:02.429Z,80.07
2018-11-22T21:40:31.182Z,78.03
2018-11-22T21:42:59.210Z,77.67
2018-11-22T21:45:27.718Z,84.40
2018-11-22T21:47:55.864Z,76.90
2018-11-22T21:50:25.235Z,84.77
2018-11-22T21:52:53.288Z,83.10
2018-11-22T21:55:22.747Z,76.90
2018-11-22T21:57:51.690Z,78.40
2018-11-22T22:00:40.816Z,72.90
2018-11-22T22:03:10.379Z,80.70
2018-11-22T22:05:39.113Z,87.87
2018-11-22T22:08:07.753Z,81.07
2018-11-22T22:10:35.911Z,72.43
2018-11-22T22:13:04.122Z,74.40
2018-11-22T22:15:33.289Z,78.07
2018-11-22T22:18:01.535Z,74.57
2018-11-22T22:20:31.007Z,84.50
2018-11-22T22:22:59.830Z,82.27
2018-11-22T22:25:27.628Z,79.53
2018-11-22T22:27:56.137Z,81.10
2018-11-22T22:30:43.361Z,76.93
2018-11-22T22:33:11.469Z,81.43
2018-11-22T22:35:39.557Z,82.77
2018-11-22T22:38:07.655Z,74.93
2018-11-22T22:40:35.721Z,75.50
2018-11-22T22:43:03.793Z,79.20
2018-11-22T22:45:32.604Z,79.53
2018-11-22T22:48:00.696Z,68.80
2018-11-22T22:50:29.665Z,75.53
2018-11-22T22:52:58.904Z,69.07
2018-11-22T22:55:27.394Z,76.63
2018-11-22T22:57:55.430Z,77.00
2018-11-22T23:00:43.665Z,78.90
2018-11-22T23:03:11.770Z,77.77
2018-11-22T23:05:39.976Z,75.13
2018-11-22T23:08:08.040Z,75.43
2018-11-22T23:10:36.136Z,73.83
2018-11-22T23:13:04.417Z,75.67
2018-11-22T23:15:32.637Z,69.13
2018-11-22T23:18:00.727Z,73.57
2018-11-22T23:20:47.914Z,69.23
2018-11-22T23:23:16.049Z,73.33
2018-11-22T23:25:44.100Z,73.90
2018-11-22T23:28:12.239Z,65.60
2018-11-22T23:30:40.285Z,66.77
2018-11-22T23:33:08.994Z,63.63
2018-11-22T23:35:37.047Z,70.17
2018-11-22T23:38:05.130Z,75.27
2018-11-22T23:40:33.905Z,69.50
2018-11-22T23:43:02.000Z,71.53
2018-11-22T23:45:31.188Z,76.30
2018-11-22T23:47:59.253Z,80.83
2018-11-22T23:50:28.665Z,74.67
2018-11-22T23:52:57.636Z,79.93
2018-11-22T23:55:25.707Z,79.07
2018-11-22T23:57:53.767Z,76.30
